Route Details

Aircraft Information
Group: European Fleet
Types: A30F, A31F, B738
Route Data
Distance: 347nm
Duration: 1h 05m
Origin METAR: EKCH 171120Z AUTO 13008KT 9999 NCD 24/18 Q1013 NOSIG
Dest. METAR: EDDK 171120Z AUTO 26005KT 200V330 CAVOK 25/15 Q1011 NOSIG
Freight Data
(for Aug 18, 2022)
Load Factor:
46%
Manifested Cargo: 26,596lbs
Financial History
Total Freight: 314,063lbs
Average Load: 0lbs/flt
Fuel Used: 90,344lbs
Avg. Fuel Used: 0lbs/flt
Fuel Expense: $46,282
Avg. Fuel Expense: $0
Avg. Fuel Cost: $0/lbs
Total Gross Income: $703,849
Pilot Pay: $2,091
Total Expenses: $148,816
Total Revenue: $448,212
Average Revenue: $0

Capitol Logistics 515




EKCH
Copenhagen Kastrup Airport
Copenhagen, DK
EDDK
Cologne Bonn Airport
Cologne, DE